Aquadale, North Carolina
Current Conditions -  °F | °C
As of 4:15 AM on Monday 24 Nov 2014 (Local Time) from KVUJ Reporting Station
Broken Clouds Broken Clouds  
Wind Chill: 60°   Ceiling: 2900
Heat Index: 60°   Visibility: 10mi
Dew Point: 59°   Wind: 5mph
Humidity: 97%   Direction: 220°SW
Pressure: 29.81"   Gusts: NA
Location:  35.2152°N, 80.1663°W
Report Text: KVUJ 240915Z AUTO 22004KT 10SM SCT025 BKN029 BKN035 16/15 A2981 RMK AO2 LTG DSNT E T01550150
Loading
Personal Weather Stations






























Interactive Weather Map New forecast layout! Learn more

10-Day Weather Forecast

Advertisements
Track Severe Weather on mobile